sensor_id;sensor_type;location;lat;lon;timestamp;P1;P2;P0
66336;PMS1003;53139;45.576;5.304;2023-06-22T00:00:30;6.00;6.00;5.00
66336;PMS1003;53139;45.576;5.304;2023-06-22T00:03:30;9.00;6.75;4.75
66336;PMS1003;53139;45.576;5.304;2023-06-22T00:06:31;8.75;5.75;5.00
66336;PMS1003;53139;45.576;5.304;2023-06-22T00:09:31;7.75;6.00;4.50
66336;PMS1003;53139;45.576;5.304;2023-06-22T00:12:32;7.00;7.00;5.00
66336;PMS1003;53139;45.576;5.304;2023-06-22T00:15:33;8.25;7.00;5.00
66336;PMS1003;53139;45.576;5.304;2023-06-22T00:18:34;8.00;7.00;6.00
66336;PMS1003;53139;45.576;5.304;2023-06-22T00:21:34;10.75;7.25;4.50
66336;PMS1003;53139;45.576;5.304;2023-06-22T00:24:35;8.00;7.50;6.25
66336;PMS1003;53139;45.576;5.304;2023-06-22T00:27:35;8.75;8.75;5.75
66336;PMS1003;53139;45.576;5.304;2023-06-22T00:30:36;8.75;7.75;5.50
66336;PMS1003;53139;45.576;5.304;2023-06-22T00:33:36;7.25;7.25;5.25
66336;PMS1003;53139;45.576;5.304;2023-06-22T00:36:37;6.75;6.75;5.75
66336;PMS1003;53139;45.576;5.304;2023-06-22T00:39:37;8.50;7.50;5.00
66336;PMS1003;53139;45.576;5.304;2023-06-22T00:42:38;9.75;5.25;4.00
66336;PMS1003;53139;45.576;5.304;2023-06-22T00:45:39;7.00;7.00;4.75
66336;PMS1003;53139;45.576;5.304;2023-06-22T00:48:39;11.75;7.00;5.25
66336;PMS1003;53139;45.576;5.304;2023-06-22T00:51:43;6.00;6.00;5.25
66336;PMS1003;53139;45.576;5.304;2023-06-22T00:54:46;11.75;7.25;6.00
66336;PMS1003;53139;45.576;5.304;2023-06-22T00:57:49;11.00;7.50;4.25
66336;PMS1003;53139;45.576;5.304;2023-06-22T01:00:51;9.75;8.25;6.00
66336;PMS1003;53139;45.576;5.304;2023-06-22T01:03:51;10.25;8.50;5.00
66336;PMS1003;53139;45.576;5.304;2023-06-22T01:06:54;11.00;7.25;5.00
66336;PMS1003;53139;45.576;5.304;2023-06-22T01:10:10;8.25;6.25;5.25
66336;PMS1003;53139;45.576;5.304;2023-06-22T01:13:29;14.00;11.25;7.25
66336;PMS1003;53139;45.576;5.304;2023-06-22T01:16:33;11.00;8.25;5.00
66336;PMS1003;53139;45.576;5.304;2023-06-22T01:19:37;9.00;8.25;6.00
66336;PMS1003;53139;45.576;5.304;2023-06-22T01:26:20;9.75;8.25;6.00
66336;PMS1003;53139;45.576;5.304;2023-06-22T01:29:29;5.25;5.25;4.00
66336;PMS1003;53139;45.576;5.304;2023-06-22T01:32:32;7.75;7.75;6.00
66336;PMS1003;53139;45.576;5.304;2023-06-22T01:35:34;7.25;5.25;3.75
66336;PMS1003;53139;45.576;5.304;2023-06-22T01:38:35;6.50;6.00;4.25
66336;PMS1003;53139;45.576;5.304;2023-06-22T01:41:38;9.75;6.50;5.00
66336;PMS1003;53139;45.576;5.304;2023-06-22T01:44:40;11.75;8.25;6.00
66336;PMS1003;53139;45.576;5.304;2023-06-22T01:47:40;7.75;7.50;6.00
66336;PMS1003;53139;45.576;5.304;2023-06-22T01:50:42;8.25;6.25;4.75
66336;PMS1003;53139;45.576;5.304;2023-06-22T01:53:43;10.50;7.00;6.00
66336;PMS1003;53139;45.576;5.304;2023-06-22T01:56:44;7.50;7.25;5.25
66336;PMS1003;53139;45.576;5.304;2023-06-22T01:59:48;10.25;7.75;5.00
66336;PMS1003;53139;45.576;5.304;2023-06-22T02:06:03;9.25;9.00;5.50
66336;PMS1003;53139;45.576;5.304;2023-06-22T02:09:10;6.50;6.00;4.75
66336;PMS1003;53139;45.576;5.304;2023-06-22T02:12:16;12.50;8.50;4.75
66336;PMS1003;53139;45.576;5.304;2023-06-22T02:15:18;9.25;8.25;6.00
66336;PMS1003;53139;45.576;5.304;2023-06-22T02:18:19;15.50;9.00;5.00
66336;PMS1003;53139;45.576;5.304;2023-06-22T02:21:20;8.50;6.00;5.00
66336;PMS1003;53139;45.576;5.304;2023-06-22T02:24:21;4.75;4.25;3.00
66336;PMS1003;53139;45.576;5.304;2023-06-22T02:27:23;10.75;8.00;6.00
66336;PMS1003;53139;45.576;5.304;2023-06-22T02:30:23;12.50;8.50;5.00
66336;PMS1003;53139;45.576;5.304;2023-06-22T02:33:24;10.00;7.25;5.00
66336;PMS1003;53139;45.576;5.304;2023-06-22T02:36:24;6.25;6.00;3.75
66336;PMS1003;53139;45.576;5.304;2023-06-22T02:39:26;9.50;5.50;4.00
66336;PMS1003;53139;45.576;5.304;2023-06-22T02:42:27;9.50;7.75;5.25
66336;PMS1003;53139;45.576;5.304;2023-06-22T02:45:27;9.75;8.00;6.00
66336;PMS1003;53139;45.576;5.304;2023-06-22T02:48:28;9.00;7.50;6.50
66336;PMS1003;53139;45.576;5.304;2023-06-22T02:51:29;8.50;8.00;5.75
66336;PMS1003;53139;45.576;5.304;2023-06-22T02:54:33;9.25;6.50;4.75
66336;PMS1003;53139;45.576;5.304;2023-06-22T02:57:34;12.25;9.75;6.25
66336;PMS1003;53139;45.576;5.304;2023-06-22T03:00:34;11.00;7.75;5.25
66336;PMS1003;53139;45.576;5.304;2023-06-22T03:03:35;13.75;10.00;7.50
66336;PMS1003;53139;45.576;5.304;2023-06-22T03:06:35;10.00;8.00;5.50
66336;PMS1003;53139;45.576;5.304;2023-06-22T03:09:36;11.50;9.25;6.00
66336;PMS1003;53139;45.576;5.304;2023-06-22T03:12:36;9.50;8.50;6.00
66336;PMS1003;53139;45.576;5.304;2023-06-22T03:15:37;9.75;8.00;5.50
66336;PMS1003;53139;45.576;5.304;2023-06-22T03:18:38;9.00;7.50;5.00
66336;PMS1003;53139;45.576;5.304;2023-06-22T03:21:38;10.50;6.75;3.75
66336;PMS1003;53139;45.576;5.304;2023-06-22T03:24:39;9.00;8.00;5.00
66336;PMS1003;53139;45.576;5.304;2023-06-22T03:27:40;12.50;9.25;6.00
66336;PMS1003;53139;45.576;5.304;2023-06-22T03:30:41;11.25;9.00;6.75
66336;PMS1003;53139;45.576;5.304;2023-06-22T03:33:42;7.75;7.25;5.00
66336;PMS1003;53139;45.576;5.304;2023-06-22T03:36:42;10.25;9.00;6.75
66336;PMS1003;53139;45.576;5.304;2023-06-22T03:39:45;9.25;9.25;6.25
66336;PMS1003;53139;45.576;5.304;2023-06-22T03:42:45;10.25;8.00;5.00
66336;PMS1003;53139;45.576;5.304;2023-06-22T03:45:46;11.25;8.75;6.50
66336;PMS1003;53139;45.576;5.304;2023-06-22T03:48:46;12.25;10.00;5.75
66336;PMS1003;53139;45.576;5.304;2023-06-22T03:51:47;10.50;9.50;6.00
66336;PMS1003;53139;45.576;5.304;2023-06-22T03:54:47;9.50;8.75;6.00
66336;PMS1003;53139;45.576;5.304;2023-06-22T03:57:48;10.00;8.75;6.50
66336;PMS1003;53139;45.576;5.304;2023-06-22T04:00:49;12.25;10.00;7.75
66336;PMS1003;53139;45.576;5.304;2023-06-22T04:03:51;11.75;8.75;7.00
66336;PMS1003;53139;45.576;5.304;2023-06-22T04:06:52;11.00;8.25;6.25
66336;PMS1003;53139;45.576;5.304;2023-06-22T04:09:52;12.50;10.00;9.00
66336;PMS1003;53139;45.576;5.304;2023-06-22T04:12:52;16.00;11.25;7.75
66336;PMS1003;53139;45.576;5.304;2023-06-22T04:15:53;14.75;11.25;9.00
66336;PMS1003;53139;45.576;5.304;2023-06-22T04:18:54;11.50;9.00;6.50
66336;PMS1003;53139;45.576;5.304;2023-06-22T04:21:54;13.25;10.75;8.00
66336;PMS1003;53139;45.576;5.304;2023-06-22T04:24:55;10.25;6.50;6.25
66336;PMS1003;53139;45.576;5.304;2023-06-22T04:27:55;11.25;10.25;7.25
66336;PMS1003;53139;45.576;5.304;2023-06-22T04:30:56;10.75;8.25;6.00
66336;PMS1003;53139;45.576;5.304;2023-06-22T04:34:03;12.75;9.25;6.00
66336;PMS1003;53139;45.576;5.304;2023-06-22T04:37:07;14.50;7.00;5.75
66336;PMS1003;53139;45.576;5.304;2023-06-22T04:40:07;15.75;9.25;6.25
66336;PMS1003;53139;45.576;5.304;2023-06-22T04:43:08;11.50;8.75;6.00
66336;PMS1003;53139;45.576;5.304;2023-06-22T04:46:10;9.50;8.50;6.25
66336;PMS1003;53139;45.576;5.304;2023-06-22T04:49:10;12.75;9.00;6.00
66336;PMS1003;53139;45.576;5.304;2023-06-22T04:52:11;13.25;10.50;7.75
66336;PMS1003;53139;45.576;5.304;2023-06-22T04:55:12;14.75;9.75;7.00
66336;PMS1003;53139;45.576;5.304;2023-06-22T04:58:18;12.75;8.75;6.00
66336;PMS1003;53139;45.576;5.304;2023-06-22T05:01:21;10.50;9.25;6.00
66336;PMS1003;53139;45.576;5.304;2023-06-22T05:04:22;9.50;7.50;5.25
66336;PMS1003;53139;45.576;5.304;2023-06-22T05:07:23;9.75;9.75;7.00
66336;PMS1003;53139;45.576;5.304;2023-06-22T05:10:25;15.50;8.75;7.00
66336;PMS1003;53139;45.576;5.304;2023-06-22T05:13:26;9.00;9.00;7.00
66336;PMS1003;53139;45.576;5.304;2023-06-22T05:16:26;9.25;6.00;4.25
66336;PMS1003;53139;45.576;5.304;2023-06-22T05:19:27;10.25;9.50;6.00
66336;PMS1003;53139;45.576;5.304;2023-06-22T05:22:33;9.00;7.75;6.00
66336;PMS1003;53139;45.576;5.304;2023-06-22T05:25:33;13.00;9.50;7.00
66336;PMS1003;53139;45.576;5.304;2023-06-22T05:28:34;10.25;8.50;6.00
66336;PMS1003;53139;45.576;5.304;2023-06-22T05:31:34;12.50;7.75;5.25
66336;PMS1003;53139;45.576;5.304;2023-06-22T05:34:34;12.00;11.00;7.00
66336;PMS1003;53139;45.576;5.304;2023-06-22T05:37:35;14.25;11.25;7.00
66336;PMS1003;53139;45.576;5.304;2023-06-22T05:40:35;13.50;12.00;7.00
66336;PMS1003;53139;45.576;5.304;2023-06-22T05:43:36;18.25;11.75;7.25
66336;PMS1003;53139;45.576;5.304;2023-06-22T05:46:36;5.00;5.00;4.00
66336;PMS1003;53139;45.576;5.304;2023-06-22T05:49:37;19.00;12.25;8.50
66336;PMS1003;53139;45.576;5.304;2023-06-22T05:52:37;11.50;10.75;8.00
66336;PMS1003;53139;45.576;5.304;2023-06-22T05:55:37;12.25;11.25;8.00
66336;PMS1003;53139;45.576;5.304;2023-06-22T05:58:38;11.50;9.25;7.25
66336;PMS1003;53139;45.576;5.304;2023-06-22T06:01:38;13.75;10.75;7.00
66336;PMS1003;53139;45.576;5.304;2023-06-22T06:04:40;15.25;11.00;8.00
66336;PMS1003;53139;45.576;5.304;2023-06-22T06:07:40;15.00;10.75;8.00
66336;PMS1003;53139;45.576;5.304;2023-06-22T06:10:44;15.25;10.00;7.00
66336;PMS1003;53139;45.576;5.304;2023-06-22T06:13:45;12.25;8.25;6.00
66336;PMS1003;53139;45.576;5.304;2023-06-22T06:16:45;11.25;11.00;7.00
66336;PMS1003;53139;45.576;5.304;2023-06-22T06:19:46;16.00;13.50;9.25
66336;PMS1003;53139;45.576;5.304;2023-06-22T06:22:46;14.25;12.25;8.00
66336;PMS1003;53139;45.576;5.304;2023-06-22T06:25:47;14.50;10.75;7.75
66336;PMS1003;53139;45.576;5.304;2023-06-22T06:28:48;12.75;10.50;7.25
66336;PMS1003;53139;45.576;5.304;2023-06-22T06:31:48;12.25;11.50;9.25
66336;PMS1003;53139;45.576;5.304;2023-06-22T06:34:48;13.50;9.50;6.75
66336;PMS1003;53139;45.576;5.304;2023-06-22T06:37:49;15.75;12.75;8.00
66336;PMS1003;53139;45.576;5.304;2023-06-22T06:40:50;14.25;11.50;6.75
66336;PMS1003;53139;45.576;5.304;2023-06-22T06:43:50;11.75;11.25;8.75
66336;PMS1003;53139;45.576;5.304;2023-06-22T06:46:51;13.75;13.50;9.25
66336;PMS1003;53139;45.576;5.304;2023-06-22T06:49:54;13.00;12.50;10.00
66336;PMS1003;53139;45.576;5.304;2023-06-22T06:52:54;18.50;14.25;10.25
66336;PMS1003;53139;45.576;5.304;2023-06-22T06:55:56;19.50;16.00;12.25
66336;PMS1003;53139;45.576;5.304;2023-06-22T06:58:57;15.75;12.50;9.75
66336;PMS1003;53139;45.576;5.304;2023-06-22T07:01:58;17.75;16.00;10.50
66336;PMS1003;53139;45.576;5.304;2023-06-22T07:04:59;13.75;11.25;7.00
66336;PMS1003;53139;45.576;5.304;2023-06-22T07:07:59;11.75;11.75;10.25
66336;PMS1003;53139;45.576;5.304;2023-06-22T07:10:59;17.25;14.00;9.00
66336;PMS1003;53139;45.576;5.304;2023-06-22T07:14:00;2.00;0.00;0.00
66336;PMS1003;53139;45.576;5.304;2023-06-22T07:17:01;13.50;12.25;10.50
66336;PMS1003;53139;45.576;5.304;2023-06-22T07:20:02;17.00;13.25;8.75
66336;PMS1003;53139;45.576;5.304;2023-06-22T07:23:08;18.50;15.00;9.50
66336;PMS1003;53139;45.576;5.304;2023-06-22T07:26:08;16.00;15.75;10.50
66336;PMS1003;53139;45.576;5.304;2023-06-22T07:29:09;15.75;14.75;10.25
66336;PMS1003;53139;45.576;5.304;2023-06-22T07:32:09;12.75;10.00;8.00
66336;PMS1003;53139;45.576;5.304;2023-06-22T07:35:09;11.00;10.00;7.25
66336;PMS1003;53139;45.576;5.304;2023-06-22T07:38:10;11.00;10.25;8.25
66336;PMS1003;53139;45.576;5.304;2023-06-22T07:41:11;11.50;11.50;8.00
66336;PMS1003;53139;45.576;5.304;2023-06-22T07:44:11;12.25;11.00;8.00
66336;PMS1003;53139;45.576;5.304;2023-06-22T07:47:11;13.00;11.00;8.50
66336;PMS1003;53139;45.576;5.304;2023-06-22T07:50:12;14.75;10.75;7.75
66336;PMS1003;53139;45.576;5.304;2023-06-22T07:53:12;12.00;10.50;9.00
66336;PMS1003;53139;45.576;5.304;2023-06-22T07:56:13;14.25;12.00;9.25
66336;PMS1003;53139;45.576;5.304;2023-06-22T07:59:18;13.75;11.25;9.00
66336;PMS1003;53139;45.576;5.304;2023-06-22T08:02:19;13.00;11.75;8.75
66336;PMS1003;53139;45.576;5.304;2023-06-22T08:05:19;11.00;11.00;9.00
66336;PMS1003;53139;45.576;5.304;2023-06-22T08:08:19;12.00;11.00;8.25
66336;PMS1003;53139;45.576;5.304;2023-06-22T08:11:20;14.00;14.00;8.25
66336;PMS1003;53139;45.576;5.304;2023-06-22T08:14:23;11.25;10.50;8.00
66336;PMS1003;53139;45.576;5.304;2023-06-22T08:17:25;12.25;11.50;8.00
66336;PMS1003;53139;45.576;5.304;2023-06-22T08:20:26;14.50;10.75;8.25
66336;PMS1003;53139;45.576;5.304;2023-06-22T08:23:27;13.25;12.00;8.75
66336;PMS1003;53139;45.576;5.304;2023-06-22T08:26:27;12.50;11.00;8.00
66336;PMS1003;53139;45.576;5.304;2023-06-22T08:29:27;9.00;6.75;5.75
66336;PMS1003;53139;45.576;5.304;2023-06-22T08:32:28;10.75;10.00;8.25
66336;PMS1003;53139;45.576;5.304;2023-06-22T08:35:29;9.50;8.50;6.00
66336;PMS1003;53139;45.576;5.304;2023-06-22T08:38:29;13.00;11.25;8.25
66336;PMS1003;53139;45.576;5.304;2023-06-22T08:41:29;12.00;9.00;7.25
66336;PMS1003;53139;45.576;5.304;2023-06-22T08:44:30;10.50;10.50;8.75
66336;PMS1003;53139;45.576;5.304;2023-06-22T08:47:31;13.50;12.00;9.00
66336;PMS1003;53139;45.576;5.304;2023-06-22T08:50:31;12.00;9.00;7.00
66336;PMS1003;53139;45.576;5.304;2023-06-22T08:53:32;11.50;9.50;7.75
66336;PMS1003;53139;45.576;5.304;2023-06-22T08:56:32;11.00;10.00;6.25
66336;PMS1003;53139;45.576;5.304;2023-06-22T08:59:33;8.25;8.00;6.50
66336;PMS1003;53139;45.576;5.304;2023-06-22T09:02:33;9.25;8.75;7.00
66336;PMS1003;53139;45.576;5.304;2023-06-22T09:05:34;9.00;8.75;6.00
66336;PMS1003;53139;45.576;5.304;2023-06-22T09:08:43;11.00;8.50;6.75
66336;PMS1003;53139;45.576;5.304;2023-06-22T09:12:24;12.00;9.00;7.00
66336;PMS1003;53139;45.576;5.304;2023-06-22T09:15:27;8.00;8.00;6.75
66336;PMS1003;53139;45.576;5.304;2023-06-22T09:18:27;12.75;8.50;7.00
66336;PMS1003;53139;45.576;5.304;2023-06-22T09:21:27;13.00;9.25;6.75
66336;PMS1003;53139;45.576;5.304;2023-06-22T09:24:28;13.00;8.50;6.50
66336;PMS1003;53139;45.576;5.304;2023-06-22T09:27:28;10.75;9.00;6.75
66336;PMS1003;53139;45.576;5.304;2023-06-22T09:30:29;10.00;7.75;5.50
66336;PMS1003;53139;45.576;5.304;2023-06-22T09:33:29;11.00;8.00;7.00
66336;PMS1003;53139;45.576;5.304;2023-06-22T09:36:30;10.25;8.50;7.00
66336;PMS1003;53139;45.576;5.304;2023-06-22T09:39:30;8.50;8.00;6.00
66336;PMS1003;53139;45.576;5.304;2023-06-22T09:42:31;12.75;9.50;7.75
66336;PMS1003;53139;45.576;5.304;2023-06-22T09:45:31;8.25;8.00;6.00
66336;PMS1003;53139;45.576;5.304;2023-06-22T09:48:31;8.75;7.50;5.50
66336;PMS1003;53139;45.576;5.304;2023-06-22T09:51:32;10.75;8.00;6.00
66336;PMS1003;53139;45.576;5.304;2023-06-22T09:54:32;11.00;8.50;7.25
66336;PMS1003;53139;45.576;5.304;2023-06-22T09:57:32;9.00;7.50;5.25
66336;PMS1003;53139;45.576;5.304;2023-06-22T10:00:33;7.75;7.25;6.00
66336;PMS1003;53139;45.576;5.304;2023-06-22T10:03:33;2.75;1.00;0.00
66336;PMS1003;53139;45.576;5.304;2023-06-22T10:06:34;10.75;8.50;6.00
66336;PMS1003;53139;45.576;5.304;2023-06-22T10:09:34;9.25;7.75;6.50
66336;PMS1003;53139;45.576;5.304;2023-06-22T10:12:34;7.75;7.75;5.75
66336;PMS1003;53139;45.576;5.304;2023-06-22T10:15:35;10.25;8.00;6.00
66336;PMS1003;53139;45.576;5.304;2023-06-22T10:18:35;11.00;9.00;7.00
66336;PMS1003;53139;45.576;5.304;2023-06-22T10:21:36;8.75;8.50;6.25
66336;PMS1003;53139;45.576;5.304;2023-06-22T10:24:36;8.75;8.50;6.50
66336;PMS1003;53139;45.576;5.304;2023-06-22T10:27:38;8.50;8.50;6.25
66336;PMS1003;53139;45.576;5.304;2023-06-22T10:30:41;13.75;11.50;8.25
66336;PMS1003;53139;45.576;5.304;2023-06-22T10:33:42;9.00;9.00;7.00
66336;PMS1003;53139;45.576;5.304;2023-06-22T10:36:44;9.75;8.75;6.25
66336;PMS1003;53139;45.576;5.304;2023-06-22T10:39:47;14.25;10.25;8.00
66336;PMS1003;53139;45.576;5.304;2023-06-22T10:42:47;12.50;9.25;7.50
66336;PMS1003;53139;45.576;5.304;2023-06-22T10:45:50;12.00;10.50;8.00
66336;PMS1003;53139;45.576;5.304;2023-06-22T10:48:50;10.00;9.00;7.00
66336;PMS1003;53139;45.576;5.304;2023-06-22T10:51:51;9.50;9.50;7.50
66336;PMS1003;53139;45.576;5.304;2023-06-22T10:54:51;10.25;9.25;7.00
66336;PMS1003;53139;45.576;5.304;2023-06-22T10:57:52;11.50;9.50;7.50
66336;PMS1003;53139;45.576;5.304;2023-06-22T11:00:53;9.00;8.25;6.50
66336;PMS1003;53139;45.576;5.304;2023-06-22T11:03:53;10.25;8.50;7.00
66336;PMS1003;53139;45.576;5.304;2023-06-22T11:06:53;12.00;10.00;7.75
66336;PMS1003;53139;45.576;5.304;2023-06-22T11:09:54;8.75;8.75;6.75
66336;PMS1003;53139;45.576;5.304;2023-06-22T11:12:54;16.00;14.75;11.75
66336;PMS1003;53139;45.576;5.304;2023-06-22T11:15:56;10.25;9.75;8.25
66336;PMS1003;53139;45.576;5.304;2023-06-22T11:18:56;10.50;9.50;7.75
66336;PMS1003;53139;45.576;5.304;2023-06-22T11:21:56;13.75;10.75;7.75
66336;PMS1003;53139;45.576;5.304;2023-06-22T11:24:57;14.50;9.75;7.25
66336;PMS1003;53139;45.576;5.304;2023-06-22T11:27:57;12.00;8.50;7.25
66336;PMS1003;53139;45.576;5.304;2023-06-22T11:30:58;10.50;10.50;8.25
66336;PMS1003;53139;45.576;5.304;2023-06-22T11:33:58;11.75;9.75;8.25
66336;PMS1003;53139;45.576;5.304;2023-06-22T11:36:59;8.75;8.00;6.25
66336;PMS1003;53139;45.576;5.304;2023-06-22T11:39:59;11.00;10.00;8.00
66336;PMS1003;53139;45.576;5.304;2023-06-22T11:42:59;10.50;10.50;8.00
66336;PMS1003;53139;45.576;5.304;2023-06-22T11:46:03;13.00;11.25;8.50
66336;PMS1003;53139;45.576;5.304;2023-06-22T11:49:04;11.00;9.50;6.50
66336;PMS1003;53139;45.576;5.304;2023-06-22T11:52:04;13.75;12.25;9.00
66336;PMS1003;53139;45.576;5.304;2023-06-22T11:55:05;15.00;12.25;9.00
66336;PMS1003;53139;45.576;5.304;2023-06-22T11:58:06;14.00;13.75;10.00
66336;PMS1003;53139;45.576;5.304;2023-06-22T12:01:06;12.50;9.00;6.00
66336;PMS1003;53139;45.576;5.304;2023-06-22T12:04:07;7.25;6.00;4.00
66336;PMS1003;53139;45.576;5.304;2023-06-22T12:07:10;6.25;4.25;3.25
66336;PMS1003;53139;45.576;5.304;2023-06-22T12:10:11;4.00;3.00;3.00
66336;PMS1003;53139;45.576;5.304;2023-06-22T12:13:11;4.50;4.50;3.00
66336;PMS1003;53139;45.576;5.304;2023-06-22T12:16:12;5.00;4.00;3.00
66336;PMS1003;53139;45.576;5.304;2023-06-22T12:19:12;2.75;2.50;2.25
66336;PMS1003;53139;45.576;5.304;2023-06-22T12:22:12;6.25;2.25;1.50
66336;PMS1003;53139;45.576;5.304;2023-06-22T12:25:13;3.25;2.00;1.50
66336;PMS1003;53139;45.576;5.304;2023-06-22T12:28:13;3.50;3.00;2.00
66336;PMS1003;53139;45.576;5.304;2023-06-22T12:31:14;4.00;1.00;1.00
66336;PMS1003;53139;45.576;5.304;2023-06-22T12:34:14;3.00;1.50;1.00
66336;PMS1003;53139;45.576;5.304;2023-06-22T12:37:14;3.75;2.00;2.00
66336;PMS1003;53139;45.576;5.304;2023-06-22T12:40:15;2.00;2.00;1.50
66336;PMS1003;53139;45.576;5.304;2023-06-22T12:43:15;2.00;2.00;1.00
66336;PMS1003;53139;45.576;5.304;2023-06-22T12:46:16;2.00;1.75;1.00
66336;PMS1003;53139;45.576;5.304;2023-06-22T12:49:16;2.25;2.00;2.00
66336;PMS1003;53139;45.576;5.304;2023-06-22T12:52:16;3.50;3.50;3.00
66336;PMS1003;53139;45.576;5.304;2023-06-22T12:55:17;2.00;2.00;2.00
66336;PMS1003;53139;45.576;5.304;2023-06-22T12:58:17;2.25;2.00;1.25
66336;PMS1003;53139;45.576;5.304;2023-06-22T13:01:18;2.00;2.00;2.00
66336;PMS1003;53139;45.576;5.304;2023-06-22T13:04:18;3.50;2.75;2.00
66336;PMS1003;53139;45.576;5.304;2023-06-22T13:07:18;4.75;2.00;2.00
66336;PMS1003;53139;45.576;5.304;2023-06-22T13:10:19;1.75;1.25;1.00
66336;PMS1003;53139;45.576;5.304;2023-06-22T13:13:19;4.25;3.00;2.00
66336;PMS1003;53139;45.576;5.304;2023-06-22T13:16:20;3.00;2.50;2.00
66336;PMS1003;53139;45.576;5.304;2023-06-22T13:19:20;4.50;3.75;3.50
66336;PMS1003;53139;45.576;5.304;2023-06-22T13:22:33;12.25;8.50;6.75
66336;PMS1003;53139;45.576;5.304;2023-06-22T13:25:42;12.25;9.50;7.25
66336;PMS1003;53139;45.576;5.304;2023-06-22T13:28:43;11.75;7.25;4.75
66336;PMS1003;53139;45.576;5.304;2023-06-22T13:31:43;10.75;5.50;3.50
66336;PMS1003;53139;45.576;5.304;2023-06-22T13:34:44;3.50;3.00;2.00
66336;PMS1003;53139;45.576;5.304;2023-06-22T13:37:44;3.00;2.00;1.00
66336;PMS1003;53139;45.576;5.304;2023-06-22T13:40:44;4.50;3.25;2.00
66336;PMS1003;53139;45.576;5.304;2023-06-22T13:43:45;5.75;3.50;2.50
66336;PMS1003;53139;45.576;5.304;2023-06-22T13:46:45;5.75;5.25;4.00
66336;PMS1003;53139;45.576;5.304;2023-06-22T13:49:46;5.50;3.25;3.00
66336;PMS1003;53139;45.576;5.304;2023-06-22T13:52:46;6.75;5.25;4.00
66336;PMS1003;53139;45.576;5.304;2023-06-22T13:55:46;7.50;5.00;3.25
66336;PMS1003;53139;45.576;5.304;2023-06-22T13:58:47;4.25;2.75;2.25
66336;PMS1003;53139;45.576;5.304;2023-06-22T14:01:48;6.00;3.00;2.00
66336;PMS1003;53139;45.576;5.304;2023-06-22T14:04:48;3.50;2.50;2.00
66336;PMS1003;53139;45.576;5.304;2023-06-22T14:07:48;1.25;0.75;0.00
66336;PMS1003;53139;45.576;5.304;2023-06-22T14:10:49;1.00;1.00;1.00
66336;PMS1003;53139;45.576;5.304;2023-06-22T14:13:49;2.00;1.00;0.25
66336;PMS1003;53139;45.576;5.304;2023-06-22T14:16:50;1.50;1.50;1.00
66336;PMS1003;53139;45.576;5.304;2023-06-22T14:19:50;1.00;0.75;0.75
66336;PMS1003;53139;45.576;5.304;2023-06-22T14:22:54;1.75;1.00;1.00
66336;PMS1003;53139;45.576;5.304;2023-06-22T14:25:54;1.00;1.00;0.75
66336;PMS1003;53139;45.576;5.304;2023-06-22T14:28:54;1.75;1.00;1.00
66336;PMS1003;53139;45.576;5.304;2023-06-22T14:31:56;1.00;1.00;1.00
66336;PMS1003;53139;45.576;5.304;2023-06-22T14:34:57;3.00;3.00;1.00
66336;PMS1003;53139;45.576;5.304;2023-06-22T14:37:57;6.25;1.25;1.00
66336;PMS1003;53139;45.576;5.304;2023-06-22T14:40:57;1.75;1.75;1.00
66336;PMS1003;53139;45.576;5.304;2023-06-22T14:43:58;4.50;4.00;3.00
66336;PMS1003;53139;45.576;5.304;2023-06-22T14:46:58;1.75;1.00;1.00
66336;PMS1003;53139;45.576;5.304;2023-06-22T14:49:59;2.00;1.00;1.00
66336;PMS1003;53139;45.576;5.304;2023-06-22T14:53:00;3.00;3.00;2.25
66336;PMS1003;53139;45.576;5.304;2023-06-22T14:56:00;2.25;1.00;1.00
66336;PMS1003;53139;45.576;5.304;2023-06-22T14:59:02;3.50;2.00;1.75
66336;PMS1003;53139;45.576;5.304;2023-06-22T15:02:02;3.00;3.00;1.50
66336;PMS1003;53139;45.576;5.304;2023-06-22T15:05:03;3.50;1.25;0.50
66336;PMS1003;53139;45.576;5.304;2023-06-22T15:08:03;1.00;1.00;1.00
66336;PMS1003;53139;45.576;5.304;2023-06-22T15:11:03;1.75;1.75;1.50
66336;PMS1003;53139;45.576;5.304;2023-06-22T15:14:04;5.25;4.00;3.00
66336;PMS1003;53139;45.576;5.304;2023-06-22T15:17:05;3.75;3.75;2.75
66336;PMS1003;53139;45.576;5.304;2023-06-22T15:20:09;4.75;2.00;1.00
66336;PMS1003;53139;45.576;5.304;2023-06-22T15:23:09;7.75;3.00;2.00
66336;PMS1003;53139;45.576;5.304;2023-06-22T15:26:10;3.00;3.00;2.50
66336;PMS1003;53139;45.576;5.304;2023-06-22T15:29:10;3.50;3.50;2.50
66336;PMS1003;53139;45.576;5.304;2023-06-22T15:32:11;5.00;5.00;3.50
66336;PMS1003;53139;45.576;5.304;2023-06-22T15:35:12;3.00;2.00;2.00
66336;PMS1003;53139;45.576;5.304;2023-06-22T15:38:12;5.00;5.00;3.75
66336;PMS1003;53139;45.576;5.304;2023-06-22T15:41:13;4.25;2.50;2.00
66336;PMS1003;53139;45.576;5.304;2023-06-22T15:44:13;5.75;2.00;2.00
66336;PMS1003;53139;45.576;5.304;2023-06-22T15:47:14;5.25;3.75;2.25
66336;PMS1003;53139;45.576;5.304;2023-06-22T15:50:16;3.50;2.75;2.00
66336;PMS1003;53139;45.576;5.304;2023-06-22T15:53:17;2.00;1.75;1.00
66336;PMS1003;53139;45.576;5.304;2023-06-22T15:56:17;2.75;2.75;2.00
66336;PMS1003;53139;45.576;5.304;2023-06-22T15:59:20;3.50;3.50;2.50
66336;PMS1003;53139;45.576;5.304;2023-06-22T16:02:20;5.50;3.50;3.25
66336;PMS1003;53139;45.576;5.304;2023-06-22T16:05:21;4.25;2.00;2.00
66336;PMS1003;53139;45.576;5.304;2023-06-22T16:08:21;3.50;2.25;1.25
66336;PMS1003;53139;45.576;5.304;2023-06-22T16:11:22;2.00;2.00;2.00
66336;PMS1003;53139;45.576;5.304;2023-06-22T16:14:22;2.25;2.25;2.00
66336;PMS1003;53139;45.576;5.304;2023-06-22T16:17:23;3.25;2.00;1.50
66336;PMS1003;53139;45.576;5.304;2023-06-22T16:20:25;2.00;2.00;2.00
66336;PMS1003;53139;45.576;5.304;2023-06-22T16:23:25;2.50;2.50;2.00
66336;PMS1003;53139;45.576;5.304;2023-06-22T16:26:26;2.00;2.00;1.75
66336;PMS1003;53139;45.576;5.304;2023-06-22T16:29:26;3.00;2.00;2.00
66336;PMS1003;53139;45.576;5.304;2023-06-22T16:32:26;4.00;3.00;2.00
66336;PMS1003;53139;45.576;5.304;2023-06-22T16:35:27;4.00;2.00;2.00
66336;PMS1003;53139;45.576;5.304;2023-06-22T16:38:36;1.25;1.25;1.00
66336;PMS1003;53139;45.576;5.304;2023-06-22T16:41:38;3.75;2.00;1.75
66336;PMS1003;53139;45.576;5.304;2023-06-22T16:44:38;3.25;2.50;1.75
66336;PMS1003;53139;45.576;5.304;2023-06-22T16:47:38;2.00;1.75;1.00
66336;PMS1003;53139;45.576;5.304;2023-06-22T16:50:39;2.00;2.00;2.00
66336;PMS1003;53139;45.576;5.304;2023-06-22T16:53:39;2.25;2.25;2.00
66336;PMS1003;53139;45.576;5.304;2023-06-22T16:56:39;3.00;2.00;2.00
66336;PMS1003;53139;45.576;5.304;2023-06-22T16:59:40;2.75;2.75;2.00
66336;PMS1003;53139;45.576;5.304;2023-06-22T17:02:48;1.50;1.50;1.25
66336;PMS1003;53139;45.576;5.304;2023-06-22T17:05:50;4.00;2.50;2.00
66336;PMS1003;53139;45.576;5.304;2023-06-22T17:08:55;3.75;3.00;2.75
66336;PMS1003;53139;45.576;5.304;2023-06-22T17:11:57;5.75;3.75;3.00
66336;PMS1003;53139;45.576;5.304;2023-06-22T17:14:59;3.75;3.50;2.50
66336;PMS1003;53139;45.576;5.304;2023-06-22T17:18:02;5.75;2.50;1.75
66336;PMS1003;53139;45.576;5.304;2023-06-22T17:21:04;3.00;3.00;2.00
66336;PMS1003;53139;45.576;5.304;2023-06-22T17:24:04;4.00;2.50;2.00
66336;PMS1003;53139;45.576;5.304;2023-06-22T17:27:05;3.25;3.00;2.25
66336;PMS1003;53139;45.576;5.304;2023-06-22T17:30:09;3.25;3.00;2.50
66336;PMS1003;53139;45.576;5.304;2023-06-22T17:33:13;3.25;3.25;2.00
66336;PMS1003;53139;45.576;5.304;2023-06-22T17:36:15;3.00;1.25;1.25